Gainesville, FL

11:51 AM EST on February 10, 2016 (GMT -0500)
Suburban Heights | | Change Station
CLOSE
Current Station
Personal Weather Station
Location: Gainesville, FL
Elevation: 150 ft
Nearby Weather Stations
Active Advisory: Freeze Watch

Elev 150 ft 29.67 °N, 82.39 °W | Updated 2 minutes ago

Clear
Clear
50.2 °F
Feels Like 50.2 °F
N
2.0
Wind Variable Wind from West
Gusts 10.0 mph

Today
High -- | Low -- °F
--% Chance of Precip.
Yesterday
High -- | Low -- °F
Precip. -- in
Pressure 30.24 in
Visibility 10.0 miles
Clouds Clear
Dew Point 20 °F
Humidity 31%
Rainfall 0.00 in
Snow Depth Not available.
7:13 AM 6:14 PM
Waxing Crescent, 6% visible
METAR KGNV 101553Z 26020G26KT 10SM CLR 09/M09 A3023 RMK AO2 PK WND 28026/1553 SLP239 T00891094
Pressure 30.24 in
Visibility 10.0 miles
Clouds Clear
Dew Point 20 °F
Humidity 31%
Rainfall 0.00 in
Snow Depth Not available.
7:13 AM 6:14 PM
Waxing Crescent, 6% visible
METAR KGNV 101553Z 26020G26KT 10SM CLR 09/M09 A3023 RMK AO2 PK WND 28026/1553 SLP239 T00891094

10-Day Weather Forecast

Almanac

Astronomy

Feb. 10, 2016 Rise Set
Actual Time
Civil Twilight
Nautical Twilight
Astronomical Twilight
Moon
Length of Visible Light
Length of Day
Tomorrow will be .
, % of the Moon is Illuminated

Today's Extremes

State Highs State Lows

Community

WunderPhotos

Upload Photos

1,891,891 photos uploaded!

WunderBlog® & News

Nearby

Air Quality

  Air Quality AQ Index Pollutant
Not available.

Snow Depth

Station Depth Elevation

Earthquake Activity

City Distance Mag. Time & Date
Minimum magnitude displayed is 2.5.

Coastal Water Temperatures

Place Temperature

Stations

Nearby Weather Stations

Station Location Temp. Windchill Dew Point Humidity Wind Precip. Elev Updated Type
                   

Watches & Warnings

Freeze Watch
Issued: 8:58 AM EST Feb. 10, 2016 – National Weather Service

... Freeze watch remains in effect from late tonight through
Thursday morning...
... Freeze warning is cancelled...

The National Weather Service in Jacksonville has cancelled the
freeze warning.

* Temperature... lows in the upper 20s to lower 30s tonight.

* Impacts... appropriate action should also be taken to ensure
tender vegetation and outdoor pets have adequate protection
from the cold temperatures.

Precautionary/preparedness actions...

A freeze watch means sub-freezing temperatures are possible for
at least 2 hours. Precautions may be required to protect plants...
pets and those sensitive to the cold if a freeze warning is
issued.